createdAt,value
2018-07-25T00:02:14.626Z,60.10
2018-07-25T00:04:42.729Z,63.27
2018-07-25T00:07:10.856Z,65.07
2018-07-25T00:09:38.983Z,64.13
2018-07-25T00:12:07.412Z,67.23
2018-07-25T00:14:35.553Z,64.70
2018-07-25T00:17:03.689Z,63.90
2018-07-25T00:19:31.821Z,68.03
2018-07-25T00:21:59.941Z,65.53
2018-07-25T00:24:28.090Z,66.87
2018-07-25T00:26:56.225Z,62.80
2018-07-25T00:29:24.350Z,65.30
2018-07-25T00:31:52.535Z,65.63
2018-07-25T00:34:20.685Z,64.83
2018-07-25T00:36:48.878Z,62.10
2018-07-25T00:39:17.019Z,66.83
2018-07-25T00:41:45.151Z,66.43
2018-07-25T00:44:13.268Z,63.50
2018-07-25T00:46:41.400Z,63.60
2018-07-25T00:49:09.525Z,63.43
2018-07-25T00:51:37.709Z,63.20
2018-07-25T00:54:05.848Z,65.77
2018-07-25T00:56:33.986Z,68.07
2018-07-25T00:59:02.120Z,66.23
2018-07-25T01:01:30.304Z,66.37
2018-07-25T01:03:59.429Z,66.90
2018-07-25T01:06:27.559Z,65.83
2018-07-25T01:08:55.701Z,64.63
2018-07-25T01:11:23.892Z,66.17
2018-07-25T01:13:52.018Z,61.93
2018-07-25T01:16:20.221Z,66.40
2018-07-25T01:18:48.400Z,67.00
2018-07-25T01:21:16.587Z,64.90
2018-07-25T01:23:44.710Z,64.83
2018-07-25T01:26:12.880Z,66.03
2018-07-25T01:28:41.010Z,65.47
2018-07-25T01:31:09.132Z,65.93
2018-07-25T01:33:37.281Z,68.73
2018-07-25T01:36:05.465Z,69.63
2018-07-25T01:38:33.598Z,65.53
2018-07-25T01:41:01.736Z,66.27
2018-07-25T01:43:29.953Z,64.90
2018-07-25T01:45:58.249Z,66.17
2018-07-25T01:48:26.394Z,67.33
2018-07-25T01:50:54.539Z,65.77
2018-07-25T01:53:22.765Z,65.13
2018-07-25T01:55:50.921Z,69.07
2018-07-25T01:58:19.052Z,68.20
2018-07-25T02:00:48.427Z,67.03
2018-07-25T02:03:17.434Z,71.60
2018-07-25T02:05:45.601Z,65.10
2018-07-25T02:08:13.742Z,67.03
2018-07-25T02:10:44.534Z,66.77
2018-07-25T02:13:14.149Z,66.63
2018-07-25T02:15:43.141Z,66.67
2018-07-25T02:18:11.343Z,68.83
2018-07-25T02:20:39.488Z,64.83
2018-07-25T02:23:07.637Z,72.27
2018-07-25T02:25:36.375Z,65.87
2018-07-25T02:28:04.654Z,66.10
2018-07-25T02:30:32.772Z,69.50
2018-07-25T02:33:00.934Z,66.30
2018-07-25T02:35:29.098Z,66.23
2018-07-25T02:37:57.227Z,66.80
2018-07-25T02:40:25.392Z,66.47
2018-07-25T02:42:53.833Z,67.60
2018-07-25T02:45:22.004Z,65.63
2018-07-25T02:47:50.188Z,67.07
2018-07-25T02:50:18.362Z,64.30
2018-07-25T02:52:46.503Z,65.70
2018-07-25T02:55:14.633Z,67.57
2018-07-25T02:57:42.839Z,66.40
2018-07-25T03:00:10.994Z,68.70
2018-07-25T03:02:39.122Z,69.03
2018-07-25T03:05:07.266Z,65.17
2018-07-25T03:07:35.408Z,66.37
2018-07-25T03:10:03.553Z,67.27
2018-07-25T03:12:31.697Z,65.87
2018-07-25T03:14:59.834Z,68.70
2018-07-25T03:17:27.983Z,66.23
2018-07-25T03:19:56.112Z,65.77
2018-07-25T03:22:24.277Z,66.57
2018-07-25T03:24:52.426Z,66.97
2018-07-25T03:27:20.587Z,64.30
2018-07-25T03:29:48.738Z,67.90
2018-07-25T03:32:16.872Z,65.70
2018-07-25T03:34:45.007Z,68.93
2018-07-25T03:37:13.138Z,64.73
2018-07-25T03:39:41.291Z,65.30
2018-07-25T03:42:09.425Z,69.73
2018-07-25T03:44:37.548Z,70.87
2018-07-25T03:47:06.043Z,66.20
2018-07-25T03:49:34.186Z,66.60
2018-07-25T03:52:02.332Z,65.80
2018-07-25T03:54:30.853Z,70.97
2018-07-25T03:56:59.053Z,65.27
2018-07-25T03:59:27.237Z,68.60
2018-07-25T04:01:55.428Z,70.63
2018-07-25T04:04:25.070Z,65.70
2018-07-25T04:06:53.203Z,69.10
2018-07-25T04:09:21.365Z,68.50
2018-07-25T04:11:49.488Z,68.60
2018-07-25T04:14:17.617Z,67.60
2018-07-25T04:16:45.747Z,66.47
2018-07-25T04:19:13.929Z,72.80
2018-07-25T04:21:42.062Z,66.70
2018-07-25T04:24:10.195Z,72.07
2018-07-25T04:26:38.318Z,68.87
2018-07-25T04:29:06.460Z,65.73
2018-07-25T04:31:34.628Z,65.00
2018-07-25T04:34:02.783Z,66.80
2018-07-25T04:36:30.893Z,68.33
2018-07-25T04:38:59.029Z,67.40
2018-07-25T04:41:27.177Z,64.53
2018-07-25T04:43:55.310Z,67.93
2018-07-25T04:46:23.692Z,70.33
2018-07-25T04:48:51.635Z,67.97
2018-07-25T04:51:19.773Z,72.50
2018-07-25T04:53:47.906Z,77.87
2018-07-25T04:56:16.128Z,74.00
2018-07-25T04:58:44.149Z,69.27
2018-07-25T05:01:12.349Z,72.63
2018-07-25T05:03:40.473Z,73.77
2018-07-25T05:06:08.587Z,76.97
2018-07-25T05:08:36.689Z,69.47
2018-07-25T05:11:04.842Z,67.80
2018-07-25T05:13:32.964Z,71.37
2018-07-25T05:16:01.098Z,79.23
2018-07-25T05:18:29.224Z,71.13
2018-07-25T05:20:57.433Z,67.57
2018-07-25T05:23:25.562Z,69.80
2018-07-25T05:25:53.719Z,68.40
2018-07-25T05:28:27.505Z,75.10
2018-07-25T05:30:55.646Z,68.00
2018-07-25T05:33:23.765Z,70.83
2018-07-25T05:35:51.902Z,69.67
2018-07-25T05:38:20.022Z,69.57
2018-07-25T05:40:48.185Z,67.77
2018-07-25T05:43:16.324Z,66.47
2018-07-25T05:45:44.529Z,66.87
2018-07-25T05:48:12.693Z,66.23
2018-07-25T05:50:41.074Z,65.27
2018-07-25T05:53:09.233Z,64.97
2018-07-25T05:55:37.414Z,65.40
2018-07-25T05:58:05.553Z,71.53
2018-07-25T06:00:33.686Z,64.57
2018-07-25T06:03:02.003Z,67.50
2018-07-25T06:05:29.961Z,71.07
2018-07-25T06:07:58.072Z,74.63
2018-07-25T06:10:26.192Z,65.50
2018-07-25T06:12:54.401Z,68.20
2018-07-25T06:15:22.448Z,67.83
2018-07-25T06:17:50.551Z,71.60
2018-07-25T06:20:18.674Z,71.93
2018-07-25T06:22:46.803Z,66.87
2018-07-25T06:25:14.953Z,64.60
2018-07-25T06:27:43.072Z,66.40
2018-07-25T06:30:11.195Z,68.03
2018-07-25T06:32:39.387Z,67.17
2018-07-25T06:35:07.547Z,67.33
2018-07-25T06:37:35.689Z,69.10
2018-07-25T06:40:03.831Z,63.90
2018-07-25T06:42:31.973Z,70.30
2018-07-25T06:45:00.087Z,69.07
2018-07-25T06:47:28.223Z,67.20
2018-07-25T06:49:56.380Z,70.70
2018-07-25T06:52:24.558Z,68.80
2018-07-25T06:54:52.702Z,69.90
2018-07-25T06:57:20.887Z,64.30
2018-07-25T06:59:48.991Z,65.73
2018-07-25T07:02:17.150Z,64.60
2018-07-25T07:04:45.331Z,65.60
2018-07-25T07:07:13.481Z,63.30
2018-07-25T07:09:41.636Z,66.17
2018-07-25T07:12:09.897Z,64.00
2018-07-25T07:14:37.980Z,66.03
2018-07-25T07:17:06.135Z,63.80
2018-07-25T07:19:34.260Z,61.27
2018-07-25T07:22:02.419Z,65.90
2018-07-25T07:24:30.583Z,64.00
2018-07-25T07:26:58.742Z,61.27
2018-07-25T07:29:26.869Z,61.30
2018-07-25T07:31:55.088Z,67.83
2018-07-25T07:34:23.445Z,63.00
2018-07-25T07:36:51.854Z,62.73
2018-07-25T07:39:20.045Z,61.00
2018-07-25T07:41:48.207Z,61.00
2018-07-25T07:44:16.365Z,60.27
2018-07-25T07:46:44.476Z,61.30
2018-07-25T07:49:12.622Z,62.60
2018-07-25T07:51:40.762Z,66.30
2018-07-25T07:54:08.904Z,62.60
2018-07-25T07:56:37.033Z,60.23
2018-07-25T07:59:05.189Z,62.83
2018-07-25T08:01:33.364Z,63.40
2018-07-25T08:04:01.557Z,61.40
2018-07-25T08:06:30.064Z,61.47
2018-07-25T08:08:58.266Z,66.80
2018-07-25T08:11:26.466Z,62.70
2018-07-25T08:13:54.683Z,61.47
2018-07-25T08:16:23.436Z,61.57
2018-07-25T08:18:51.644Z,64.57
2018-07-25T08:21:19.838Z,60.20
2018-07-25T08:23:47.983Z,58.20
2018-07-25T08:26:16.533Z,65.83
2018-07-25T08:28:44.661Z,61.00
2018-07-25T08:31:12.785Z,59.90
2018-07-25T08:33:40.944Z,59.77
2018-07-25T08:36:09.092Z,57.30
2018-07-25T08:38:43.159Z,58.30
2018-07-25T08:41:11.369Z,58.83
2018-07-25T08:43:40.705Z,58.13
2018-07-25T08:46:09.929Z,62.17
2018-07-25T08:48:38.418Z,59.20
2018-07-25T08:51:06.628Z,60.87
2018-07-25T08:53:35.108Z,56.60
2018-07-25T08:56:03.352Z,59.20
2018-07-25T08:58:31.536Z,57.37
2018-07-25T09:01:00.714Z,56.40
2018-07-25T09:03:28.983Z,57.50
2018-07-25T09:05:57.234Z,59.40
2018-07-25T09:08:25.453Z,55.90
2018-07-25T09:10:53.981Z,57.77
2018-07-25T09:13:22.836Z,56.13
2018-07-25T09:15:51.108Z,54.90
2018-07-25T09:18:20.050Z,58.93
2018-07-25T09:20:48.185Z,55.20
2018-07-25T09:23:16.563Z,59.30
2018-07-25T09:25:45.084Z,57.20
2018-07-25T09:28:13.242Z,55.17
2018-07-25T09:30:41.408Z,54.40
2018-07-25T09:33:09.541Z,57.80
2018-07-25T09:35:37.713Z,55.57
2018-07-25T09:38:05.925Z,55.17
2018-07-25T09:40:34.213Z,54.50
2018-07-25T09:43:02.461Z,57.57
2018-07-25T09:45:30.652Z,56.67
2018-07-25T09:47:58.863Z,55.20
2018-07-25T09:50:27.223Z,55.37
2018-07-25T09:52:55.756Z,54.00
2018-07-25T09:55:24.161Z,54.10
2018-07-25T09:57:52.996Z,53.47
2018-07-25T10:00:27.206Z,53.43
2018-07-25T10:02:55.730Z,56.80
2018-07-25T10:05:23.960Z,53.60
2018-07-25T10:07:52.237Z,54.30
2018-07-25T10:10:20.486Z,53.20
2018-07-25T10:12:48.795Z,56.00
2018-07-25T10:15:17.117Z,53.60
2018-07-25T10:17:45.229Z,54.77
2018-07-25T10:20:13.397Z,52.13
2018-07-25T10:22:41.519Z,54.90
2018-07-25T10:25:09.661Z,53.10
2018-07-25T10:27:37.764Z,54.00
2018-07-25T10:30:05.961Z,53.40
2018-07-25T10:32:34.153Z,54.57
2018-07-25T10:35:02.279Z,53.17
2018-07-25T10:37:32.349Z,52.30
2018-07-25T10:40:00.721Z,53.63
2018-07-25T10:42:37.412Z,51.90
2018-07-25T10:45:05.798Z,56.87
2018-07-25T10:47:33.957Z,53.83
2018-07-25T10:50:02.158Z,52.73
2018-07-25T10:52:30.415Z,53.30
2018-07-25T10:55:01.919Z,53.70
2018-07-25T10:57:30.049Z,54.47
2018-07-25T10:59:58.533Z,52.73
2018-07-25T11:02:27.297Z,55.13
2018-07-25T11:04:55.537Z,52.50
2018-07-25T11:07:24.776Z,54.50
2018-07-25T11:09:53.682Z,54.60
2018-07-25T11:12:22.157Z,53.97
2018-07-25T11:14:50.564Z,52.57
2018-07-25T11:17:18.856Z,51.60
2018-07-25T11:19:47.041Z,52.47
2018-07-25T11:22:15.178Z,51.93
2018-07-25T11:24:43.316Z,52.37
2018-07-25T11:27:11.492Z,52.33
2018-07-25T11:29:39.640Z,52.70
2018-07-25T11:32:07.848Z,53.00
2018-07-25T11:34:35.989Z,54.30
2018-07-25T11:37:04.171Z,55.07
2018-07-25T11:39:32.304Z,53.27
2018-07-25T11:42:01.745Z,52.63
2018-07-25T11:44:30.472Z,54.00
2018-07-25T11:46:59.000Z,52.47
2018-07-25T11:49:27.213Z,55.20
2018-07-25T11:51:55.492Z,53.70
2018-07-25T11:54:24.711Z,52.30
2018-07-25T11:56:54.787Z,53.43
2018-07-25T11:59:33.446Z,51.20
2018-07-25T12:02:01.581Z,52.33
2018-07-25T12:04:29.995Z,51.70
2018-07-25T12:09:26.754Z,51.10
2018-07-25T12:11:54.937Z,52.13
2018-07-25T12:14:24.500Z,51.70
2018-07-25T12:16:52.870Z,56.23
2018-07-25T12:19:21.194Z,52.37
2018-07-25T12:21:49.464Z,51.67
2018-07-25T12:24:17.654Z,51.77
2018-07-25T12:26:45.811Z,50.77
2018-07-25T12:29:13.927Z,51.23
2018-07-25T12:31:42.050Z,51.23
2018-07-25T12:34:10.201Z,50.67
2018-07-25T12:36:41.696Z,51.17
2018-07-25T12:39:11.047Z,53.00
2018-07-25T12:41:39.529Z,51.17
2018-07-25T12:44:07.860Z,56.17
2018-07-25T12:46:36.005Z,52.63
2018-07-25T12:49:04.389Z,52.50
2018-07-25T12:51:32.529Z,51.63
2018-07-25T12:54:00.800Z,51.97
2018-07-25T12:56:28.888Z,53.60
2018-07-25T12:58:57.061Z,52.57
2018-07-25T13:01:25.221Z,51.50
2018-07-25T13:03:54.336Z,52.07
2018-07-25T13:06:22.811Z,56.63
2018-07-25T13:08:51.547Z,55.37
2018-07-25T13:11:19.972Z,52.73
2018-07-25T13:13:48.116Z,51.60
2018-07-25T13:16:16.298Z,51.57
2018-07-25T13:18:44.450Z,51.87
2018-07-25T13:21:12.588Z,52.60
2018-07-25T13:23:40.750Z,53.80
2018-07-25T13:26:08.917Z,54.17
2018-07-25T13:28:37.690Z,53.27
2018-07-25T13:31:05.844Z,51.30
2018-07-25T13:33:34.337Z,54.00
2018-07-25T13:36:02.791Z,52.20
2018-07-25T13:38:31.567Z,52.40
2018-07-25T13:41:00.722Z,53.30
2018-07-25T13:43:30.062Z,52.27
2018-07-25T13:45:58.499Z,52.57
2018-07-25T13:48:26.780Z,52.30
2018-07-25T13:50:55.225Z,53.30
2018-07-25T13:53:24.091Z,53.40
2018-07-25T13:55:55.095Z,51.80
2018-07-25T13:58:24.565Z,51.87
2018-07-25T14:00:53.312Z,52.23
2018-07-25T14:03:22.036Z,54.17
2018-07-25T14:05:51.202Z,54.27
2018-07-25T14:08:19.678Z,60.43
2018-07-25T14:10:47.928Z,53.70
2018-07-25T14:13:16.905Z,51.80
2018-07-25T14:15:45.088Z,51.00
2018-07-25T14:18:13.370Z,51.57
2018-07-25T14:20:41.514Z,52.10
2018-07-25T14:23:10.012Z,50.97
2018-07-25T14:25:38.224Z,52.57
2018-07-25T14:28:06.772Z,51.87
2018-07-25T14:30:35.030Z,51.93
2018-07-25T14:33:03.130Z,52.00
2018-07-25T14:35:31.366Z,59.77
2018-07-25T14:37:59.688Z,50.80
2018-07-25T14:40:28.408Z,52.07
2018-07-25T14:42:57.579Z,52.23
2018-07-25T14:45:26.048Z,50.47
2018-07-25T14:47:54.650Z,52.47
2018-07-25T14:50:23.246Z,53.60
2018-07-25T14:52:51.965Z,52.50
2018-07-25T14:55:21.646Z,51.47
2018-07-25T14:57:51.048Z,50.50
2018-07-25T15:00:19.867Z,53.23
2018-07-25T15:02:48.097Z,49.47
2018-07-25T15:05:16.272Z,49.97
2018-07-25T15:07:44.649Z,50.90
2018-07-25T15:10:12.810Z,51.07
2018-07-25T15:12:41.816Z,51.10
2018-07-25T15:15:11.089Z,52.60
2018-07-25T15:17:39.303Z,51.50
2018-07-25T15:20:08.281Z,53.90
2018-07-25T15:22:36.458Z,50.07
2018-07-25T15:25:04.920Z,50.27
2018-07-25T15:27:33.213Z,52.80
2018-07-25T15:30:01.885Z,51.77
2018-07-25T15:32:30.266Z,51.73
2018-07-25T15:34:58.758Z,51.00
2018-07-25T15:37:27.183Z,56.20
2018-07-25T15:39:56.961Z,55.50
2018-07-25T15:42:25.673Z,52.63
2018-07-25T15:44:54.813Z,52.23
2018-07-25T15:47:24.038Z,52.00
2018-07-25T15:49:53.110Z,54.47
2018-07-25T15:52:22.131Z,53.33
2018-07-25T15:54:51.498Z,57.17
2018-07-25T15:57:20.253Z,53.50
2018-07-25T15:59:48.696Z,53.30
2018-07-25T16:02:16.882Z,53.07
2018-07-25T16:04:45.064Z,53.47
2018-07-25T16:07:13.206Z,52.30
2018-07-25T16:09:41.348Z,53.87
2018-07-25T16:12:09.508Z,55.13
2018-07-25T16:14:37.687Z,54.27
2018-07-25T16:17:05.869Z,55.27
2018-07-25T16:19:33.997Z,53.70
2018-07-25T16:22:02.255Z,56.23
2018-07-25T16:24:30.726Z,53.37
2018-07-25T16:26:59.150Z,53.20
2018-07-25T16:29:27.507Z,55.80
2018-07-25T16:31:56.168Z,54.60
2018-07-25T16:34:24.855Z,56.80
2018-07-25T16:36:53.650Z,55.97
2018-07-25T16:39:22.411Z,53.90
2018-07-25T16:41:51.221Z,59.47
2018-07-25T16:44:19.611Z,53.37
2018-07-25T16:46:47.813Z,57.73
2018-07-25T16:49:15.949Z,54.03
2018-07-25T16:51:44.094Z,52.60
2018-07-25T16:54:12.281Z,54.07
2018-07-25T16:56:40.495Z,58.87
2018-07-25T16:59:08.569Z,54.53
2018-07-25T17:01:36.714Z,52.80
2018-07-25T17:04:04.867Z,54.50
2018-07-25T17:06:33.010Z,52.70
2018-07-25T17:09:01.161Z,54.10
2018-07-25T17:11:29.293Z,52.90
2018-07-25T17:13:57.508Z,54.90
2018-07-25T17:16:25.655Z,53.50
2018-07-25T17:18:53.816Z,54.33
2018-07-25T17:21:21.952Z,58.13
2018-07-25T17:23:50.114Z,52.50
2018-07-25T17:26:18.257Z,58.47
2018-07-25T17:28:46.383Z,53.27
2018-07-25T17:31:14.505Z,54.67
2018-07-25T17:33:42.649Z,53.47
2018-07-25T17:36:10.773Z,54.20
2018-07-25T17:38:38.924Z,56.70
2018-07-25T17:41:07.375Z,55.13
2018-07-25T17:43:35.770Z,54.37
2018-07-25T17:46:04.575Z,53.07
2018-07-25T17:48:33.497Z,52.30
2018-07-25T17:51:02.182Z,50.67
2018-07-25T17:53:31.818Z,56.20
2018-07-25T17:56:01.373Z,52.97
2018-07-25T17:58:30.474Z,51.07
2018-07-25T18:00:59.069Z,53.77
2018-07-25T18:03:27.380Z,51.30
2018-07-25T18:05:55.555Z,53.83
2018-07-25T18:08:23.729Z,51.90
2018-07-25T18:10:51.850Z,52.57
2018-07-25T18:13:25.334Z,51.57
2018-07-25T18:15:53.617Z,52.40
2018-07-25T18:18:21.783Z,50.67
2018-07-25T18:20:49.925Z,55.17
2018-07-25T18:23:18.061Z,51.10
2018-07-25T18:25:46.169Z,51.30
2018-07-25T18:28:14.756Z,53.97
2018-07-25T18:30:43.082Z,56.60
2018-07-25T18:33:11.763Z,55.67
2018-07-25T18:35:40.540Z,58.80
2018-07-25T18:38:08.933Z,53.43
2018-07-25T18:40:37.094Z,55.70
2018-07-25T18:43:05.229Z,54.70
2018-07-25T18:45:33.392Z,53.80
2018-07-25T18:48:01.558Z,53.07
2018-07-25T18:50:29.696Z,54.33
2018-07-25T18:52:57.829Z,56.63
2018-07-25T18:55:25.969Z,56.03
2018-07-25T18:57:54.085Z,56.30
2018-07-25T19:00:22.323Z,55.97
2018-07-25T19:02:50.701Z,55.70
2018-07-25T19:05:23.183Z,58.63
2018-07-25T19:07:51.569Z,55.97
2018-07-25T19:10:19.918Z,58.30
2018-07-25T19:12:48.263Z,56.00
2018-07-25T19:15:22.034Z,55.93
2018-07-25T19:17:50.252Z,65.43
2018-07-25T19:20:18.553Z,63.70
2018-07-25T19:22:47.299Z,58.10
2018-07-25T19:25:15.739Z,55.90
2018-07-25T19:27:44.333Z,54.17
2018-07-25T19:30:13.341Z,55.40
2018-07-25T19:32:42.357Z,59.00
2018-07-25T19:35:12.449Z,56.60
2018-07-25T19:37:41.379Z,59.60
2018-07-25T19:40:09.792Z,65.87
2018-07-25T19:42:38.172Z,56.63
2018-07-25T19:45:06.349Z,55.83
2018-07-25T19:47:34.465Z,57.97
2018-07-25T19:50:02.614Z,57.33
2018-07-25T19:52:30.782Z,59.57
2018-07-25T19:54:58.926Z,57.03
2018-07-25T19:57:27.076Z,58.97
2018-07-25T19:59:55.186Z,54.30
2018-07-25T20:02:23.354Z,57.63
2018-07-25T20:04:51.518Z,57.87
2018-07-25T20:07:19.912Z,58.27
2018-07-25T20:09:48.394Z,59.57
2018-07-25T20:12:17.175Z,58.87
2018-07-25T20:14:51.118Z,58.50
2018-07-25T20:17:19.630Z,55.83
2018-07-25T20:19:48.291Z,60.57
2018-07-25T20:22:17.752Z,62.07
2018-07-25T20:24:46.265Z,56.97
2018-07-25T20:27:14.953Z,58.93
2018-07-25T20:29:43.809Z,56.17
2018-07-25T20:32:12.565Z,59.77
2018-07-25T20:34:41.734Z,54.80
2018-07-25T20:37:11.547Z,55.70
2018-07-25T20:39:40.123Z,56.40
2018-07-25T20:42:08.324Z,55.70
2018-07-25T20:44:36.511Z,57.10
2018-07-25T20:47:04.672Z,54.87
2018-07-25T20:49:33.934Z,57.90
2018-07-25T20:52:02.063Z,76.80
2018-07-25T20:54:30.208Z,84.27
2018-07-25T20:56:58.393Z,78.30
2018-07-25T20:59:26.525Z,60.03
2018-07-25T21:01:54.756Z,62.07
2018-07-25T21:04:22.998Z,57.87
2018-07-25T21:06:51.151Z,58.00
2018-07-25T21:09:19.388Z,57.87
2018-07-25T21:11:47.596Z,57.93
2018-07-25T21:14:16.192Z,62.17
2018-07-25T21:16:44.317Z,59.77
2018-07-25T21:19:12.544Z,57.13
2018-07-25T21:21:40.902Z,57.83
2018-07-25T21:24:09.215Z,57.60
2018-07-25T21:26:37.356Z,56.83
2018-07-25T21:29:05.530Z,58.67
2018-07-25T21:31:33.705Z,58.80
2018-07-25T21:34:01.885Z,56.70
2018-07-25T21:36:30.045Z,61.37
2018-07-25T21:38:58.189Z,59.70
2018-07-25T21:41:26.312Z,56.70
2018-07-25T21:43:54.496Z,60.27
2018-07-25T21:46:22.656Z,56.80
2018-07-25T21:48:52.733Z,58.33
2018-07-25T21:51:20.991Z,57.67
2018-07-25T21:53:49.240Z,59.63
2018-07-25T21:56:17.715Z,57.87
2018-07-25T21:58:46.090Z,59.10
2018-07-25T22:01:16.219Z,62.40
2018-07-25T22:03:45.013Z,64.33
2018-07-25T22:06:13.776Z,58.60
2018-07-25T22:08:42.228Z,58.10
2018-07-25T22:11:10.611Z,57.37
2018-07-25T22:13:43.347Z,59.80
2018-07-25T22:16:11.946Z,59.80
2018-07-25T22:18:41.324Z,57.47
2018-07-25T22:21:09.610Z,59.43
2018-07-25T22:23:37.749Z,59.70
2018-07-25T22:26:05.869Z,60.47
2018-07-25T22:28:33.993Z,60.73
2018-07-25T22:31:02.114Z,61.53
2018-07-25T22:33:30.280Z,58.87
2018-07-25T22:35:58.501Z,58.00
2018-07-25T22:38:26.857Z,58.10
2018-07-25T22:40:55.118Z,60.30
2018-07-25T22:43:23.401Z,60.13
2018-07-25T22:45:51.644Z,66.03
2018-07-25T22:48:20.006Z,60.43
2018-07-25T22:50:48.226Z,58.50
2018-07-25T22:53:16.358Z,59.83
2018-07-25T22:55:44.484Z,62.73
2018-07-25T22:58:12.647Z,58.10
2018-07-25T23:00:40.791Z,58.33
2018-07-25T23:03:08.994Z,57.97
2018-07-25T23:05:37.124Z,58.67
2018-07-25T23:08:05.261Z,58.77
2018-07-25T23:10:33.421Z,62.30
2018-07-25T23:13:01.613Z,60.90
2018-07-25T23:15:29.781Z,58.43
2018-07-25T23:17:57.971Z,58.60
2018-07-25T23:20:26.450Z,58.20
2018-07-25T23:22:57.772Z,57.27
2018-07-25T23:25:26.312Z,58.30
2018-07-25T23:27:55.673Z,60.67
2018-07-25T23:30:24.292Z,61.87
2018-07-25T23:32:52.615Z,59.47
2018-07-25T23:35:21.248Z,58.50
2018-07-25T23:37:50.220Z,61.37
2018-07-25T23:40:18.513Z,62.40
2018-07-25T23:42:46.943Z,62.77
2018-07-25T23:45:15.058Z,60.53
2018-07-25T23:47:43.188Z,59.70
2018-07-25T23:50:11.365Z,60.37
2018-07-25T23:52:39.493Z,60.77
2018-07-25T23:55:08.024Z,61.47
2018-07-25T23:57:36.161Z,61.20
